createdAt,value
2023-03-19T00:00:14.606Z,73.58
2023-03-19T00:02:37.211Z,73.63
2023-03-19T00:04:58.808Z,74.19
2023-03-19T00:07:20.613Z,74.72
2023-03-19T00:09:43.861Z,74.06
2023-03-19T00:12:06.213Z,74.13
2023-03-19T00:14:27.815Z,74.35
2023-03-19T00:16:50.757Z,74.33
2023-03-19T00:19:12.450Z,74.37
2023-03-19T00:21:34.659Z,74.83
2023-03-19T00:24:00.999Z,75.22
2023-03-19T00:26:22.638Z,75.08
2023-03-19T00:28:44.899Z,75.10
2023-03-19T00:31:16.597Z,75.44
2023-03-19T00:33:38.766Z,75.85
2023-03-19T00:36:00.688Z,75.95
2023-03-19T00:38:22.402Z,76.45
2023-03-19T00:40:44.084Z,77.15
2023-03-19T00:43:06.315Z,77.01
2023-03-19T00:45:30.500Z,76.46
2023-03-19T00:47:52.324Z,76.66
2023-03-19T00:50:14.036Z,76.19
2023-03-19T00:52:35.773Z,76.46
2023-03-19T00:54:57.583Z,76.00
2023-03-19T00:57:19.393Z,76.95
2023-03-19T00:59:41.326Z,76.48
2023-03-19T01:02:04.390Z,76.52
2023-03-19T01:04:26.471Z,76.81
2023-03-19T01:06:48.333Z,77.55
2023-03-19T01:09:10.658Z,77.46
2023-03-19T01:11:32.397Z,77.32
2023-03-19T01:13:54.192Z,77.97
2023-03-19T01:16:15.924Z,77.62
2023-03-19T01:18:37.961Z,77.95
2023-03-19T01:21:00.796Z,78.12
2023-03-19T01:23:23.933Z,78.29
2023-03-19T01:25:45.827Z,78.89
2023-03-19T01:28:07.647Z,78.89
2023-03-19T01:30:32.534Z,78.85
2023-03-19T01:33:00.566Z,79.64
2023-03-19T01:35:36.928Z,79.76
2023-03-19T01:37:58.972Z,80.11
2023-03-19T01:40:20.952Z,79.93
2023-03-19T01:43:12.556Z,79.86
2023-03-19T01:45:43.677Z,80.03
2023-03-19T01:48:38.010Z,79.92
2023-03-19T01:51:07.419Z,80.09
2023-03-19T01:53:49.773Z,79.54
2023-03-19T01:56:34.757Z,79.98
2023-03-19T01:59:35.303Z,79.75
2023-03-19T02:02:29.235Z,79.59
2023-03-19T02:05:00.641Z,79.84
2023-03-19T02:07:23.494Z,80.09
2023-03-19T02:09:46.826Z,80.24
2023-03-19T02:12:10.099Z,80.56
2023-03-19T02:14:31.830Z,80.58
2023-03-19T02:16:55.857Z,80.73
2023-03-19T02:19:27.225Z,80.51
2023-03-19T02:21:49.943Z,80.82
2023-03-19T02:24:21.269Z,80.64
2023-03-19T02:26:52.798Z,80.41
2023-03-19T02:29:14.582Z,80.23
2023-03-19T02:31:37.105Z,80.78
2023-03-19T02:34:06.739Z,80.61
2023-03-19T02:36:51.985Z,80.71
2023-03-19T02:39:29.448Z,80.79
2023-03-19T02:41:54.550Z,80.34
2023-03-19T02:44:19.923Z,80.86
2023-03-19T02:46:43.470Z,80.86
2023-03-19T02:49:05.372Z,81.01
2023-03-19T02:51:27.292Z,81.28
2023-03-19T02:53:48.887Z,81.28
2023-03-19T02:56:10.510Z,81.30
2023-03-19T02:58:32.278Z,81.53
2023-03-19T03:00:53.960Z,81.60
2023-03-19T03:03:16.246Z,81.78
2023-03-19T03:05:38.089Z,81.68
2023-03-19T03:07:59.922Z,81.90
2023-03-19T03:10:22.566Z,81.87
2023-03-19T03:12:44.246Z,81.67
2023-03-19T03:15:08.518Z,81.51
2023-03-19T03:17:30.172Z,81.27
2023-03-19T03:19:51.972Z,81.72
2023-03-19T03:22:14.255Z,81.82
2023-03-19T03:24:36.203Z,81.38
2023-03-19T03:26:57.805Z,81.48
2023-03-19T03:29:19.427Z,81.85
2023-03-19T03:31:41.183Z,81.44
2023-03-19T03:34:02.982Z,81.96
2023-03-19T03:36:27.432Z,82.14
2023-03-19T03:38:49.140Z,81.62
2023-03-19T03:41:11.231Z,81.77
2023-03-19T03:43:33.834Z,81.71
2023-03-19T03:45:56.516Z,81.76
2023-03-19T03:48:18.429Z,81.29
2023-03-19T03:50:40.302Z,81.05
2023-03-19T03:53:04.837Z,81.21
2023-03-19T03:55:28.184Z,81.25
2023-03-19T03:57:50.133Z,81.68
2023-03-19T04:00:12.779Z,81.72
2023-03-19T04:02:38.909Z,82.00
2023-03-19T04:05:00.788Z,82.13
2023-03-19T04:07:22.490Z,82.00
2023-03-19T04:09:50.797Z,81.60
2023-03-19T04:12:14.149Z,81.49
2023-03-19T04:14:37.435Z,81.92
2023-03-19T04:16:59.236Z,81.65
2023-03-19T04:19:21.118Z,81.74
2023-03-19T04:21:42.842Z,81.72
2023-03-19T04:24:04.969Z,81.88
2023-03-19T04:26:27.007Z,81.92
2023-03-19T04:28:48.963Z,81.65
2023-03-19T04:31:10.913Z,81.54
2023-03-19T04:33:37.322Z,81.48
2023-03-19T04:35:59.481Z,81.11
2023-03-19T04:38:22.494Z,81.23
2023-03-19T04:40:44.325Z,80.75
2023-03-19T04:43:05.897Z,80.80
2023-03-19T04:45:29.108Z,80.72
2023-03-19T04:47:51.553Z,80.56
2023-03-19T04:50:14.625Z,80.66
2023-03-19T04:52:37.608Z,80.74
2023-03-19T04:54:59.566Z,80.72
2023-03-19T04:57:21.622Z,80.78
2023-03-19T04:59:44.893Z,80.96
2023-03-19T05:02:08.968Z,81.10
2023-03-19T05:04:31.986Z,81.13
2023-03-19T05:06:59.515Z,80.95
2023-03-19T05:09:21.447Z,81.04
2023-03-19T05:11:43.063Z,80.88
2023-03-19T05:14:10.261Z,80.57
2023-03-19T05:17:11.271Z,80.54
2023-03-19T05:19:45.455Z,80.42
2023-03-19T05:22:07.229Z,80.19
2023-03-19T05:24:29.546Z,80.33
2023-03-19T05:26:52.589Z,80.04
2023-03-19T05:29:20.107Z,79.96
2023-03-19T05:31:53.778Z,80.04
2023-03-19T05:34:15.897Z,80.17
2023-03-19T05:36:37.563Z,79.87
2023-03-19T05:39:06.015Z,80.23
2023-03-19T05:41:31.330Z,80.12
2023-03-19T05:43:57.379Z,80.28
2023-03-19T05:46:34.299Z,80.31
2023-03-19T05:48:56.192Z,79.98
2023-03-19T05:51:17.821Z,80.52
2023-03-19T05:53:41.509Z,80.53
2023-03-19T05:56:24.188Z,80.64
2023-03-19T05:59:15.352Z,80.65
2023-03-19T06:01:42.200Z,81.04
2023-03-19T06:04:06.141Z,81.11
2023-03-19T06:06:28.321Z,80.67
2023-03-19T06:08:50.859Z,80.79
2023-03-19T06:11:21.790Z,80.99
2023-03-19T06:13:56.350Z,81.12
2023-03-19T06:16:18.157Z,80.84
2023-03-19T06:18:47.251Z,80.82
2023-03-19T06:21:10.303Z,80.63
2023-03-19T06:23:33.071Z,80.48
2023-03-19T06:25:56.818Z,80.50
2023-03-19T06:28:21.095Z,80.44
2023-03-19T06:30:44.613Z,80.80
2023-03-19T06:33:36.965Z,81.38
2023-03-19T06:35:59.825Z,82.21
2023-03-19T06:38:22.546Z,82.06
2023-03-19T06:40:44.172Z,82.20
2023-03-19T06:43:05.902Z,82.01
2023-03-19T06:45:28.018Z,82.14
2023-03-19T06:47:51.692Z,81.27
2023-03-19T06:50:17.928Z,79.05
2023-03-19T06:52:41.405Z,76.78
2023-03-19T06:55:03.369Z,76.86
2023-03-19T06:57:25.075Z,77.32
2023-03-19T06:59:46.884Z,77.33
2023-03-19T07:02:12.104Z,78.30
2023-03-19T07:04:33.763Z,78.95
2023-03-19T07:06:55.402Z,79.37
2023-03-19T07:09:17.334Z,79.95
2023-03-19T07:11:39.177Z,80.49
2023-03-19T07:14:00.858Z,81.13
2023-03-19T07:16:22.567Z,81.18
2023-03-19T07:18:44.229Z,81.01
2023-03-19T07:21:06.034Z,81.55
2023-03-19T07:23:27.774Z,81.84
2023-03-19T07:25:49.596Z,81.97
2023-03-19T07:28:11.405Z,82.22
2023-03-19T07:30:33.288Z,82.11
2023-03-19T07:32:55.467Z,82.29
2023-03-19T07:35:17.282Z,81.86
2023-03-19T07:37:38.993Z,82.24
2023-03-19T07:40:00.757Z,82.00
2023-03-19T07:42:22.372Z,82.42
2023-03-19T07:44:44.002Z,82.81
2023-03-19T07:47:09.596Z,83.11
2023-03-19T07:49:35.452Z,84.13
2023-03-19T07:51:57.214Z,83.99
2023-03-19T07:54:18.962Z,83.77
2023-03-19T07:56:40.617Z,83.87
2023-03-19T07:59:02.326Z,83.76
2023-03-19T08:01:23.976Z,83.47
2023-03-19T08:03:45.988Z,83.01
2023-03-19T08:06:07.719Z,82.21
2023-03-19T08:08:29.430Z,81.60
2023-03-19T08:10:54.799Z,81.36
2023-03-19T08:13:16.782Z,80.62
2023-03-19T08:15:38.431Z,80.38
2023-03-19T08:18:03.691Z,79.42
2023-03-19T08:20:25.374Z,79.06
2023-03-19T08:22:50.931Z,78.74
2023-03-19T08:25:12.979Z,77.95
2023-03-19T08:27:36.102Z,77.05
2023-03-19T08:29:58.840Z,76.30
2023-03-19T08:32:20.477Z,76.10
2023-03-19T08:34:42.130Z,76.17
2023-03-19T08:37:03.786Z,75.34
2023-03-19T08:39:25.422Z,74.60
2023-03-19T08:41:47.014Z,74.11
2023-03-19T08:44:08.762Z,72.97
2023-03-19T08:46:31.074Z,73.01
2023-03-19T08:48:52.774Z,72.95
2023-03-19T08:51:14.841Z,71.90
2023-03-19T08:53:38.002Z,70.91
2023-03-19T08:56:04.127Z,71.12
2023-03-19T08:58:26.965Z,70.16
2023-03-19T09:00:49.608Z,69.88
2023-03-19T09:03:11.239Z,70.58
2023-03-19T09:05:32.922Z,70.91
2023-03-19T09:07:54.552Z,70.54
2023-03-19T09:10:16.293Z,69.28
2023-03-19T09:12:37.995Z,69.00
2023-03-19T09:14:59.595Z,67.85
2023-03-19T09:17:21.269Z,68.70
2023-03-19T09:19:42.931Z,68.73
2023-03-19T09:22:05.335Z,68.31
2023-03-19T09:24:27.500Z,67.95
2023-03-19T09:26:49.681Z,67.60
2023-03-19T09:29:11.898Z,67.21
2023-03-19T09:31:33.816Z,67.00
2023-03-19T09:33:55.487Z,66.00
2023-03-19T09:36:17.360Z,66.05
2023-03-19T09:38:39.372Z,65.90
2023-03-19T09:41:12.907Z,65.99
2023-03-19T09:44:04.878Z,66.90
2023-03-19T09:46:58.868Z,66.77
2023-03-19T09:49:30.071Z,65.80
2023-03-19T09:52:17.592Z,65.22
2023-03-19T09:54:52.273Z,64.27
2023-03-19T09:57:15.189Z,63.79
2023-03-19T09:59:39.145Z,62.32
2023-03-19T10:02:18.970Z,62.42
2023-03-19T10:05:07.132Z,63.33
2023-03-19T10:08:32.746Z,63.64
2023-03-19T10:11:42.634Z,63.81
2023-03-19T10:14:21.481Z,63.76
2023-03-19T10:16:49.251Z,63.70
2023-03-19T10:19:18.886Z,63.62
2023-03-19T10:21:52.050Z,63.47
2023-03-19T10:24:24.027Z,62.95
2023-03-19T10:26:46.279Z,63.25
2023-03-19T10:29:20.977Z,62.60
2023-03-19T10:32:20.486Z,62.06
2023-03-19T10:34:48.896Z,62.56
2023-03-19T10:37:13.641Z,62.12
2023-03-19T10:39:38.608Z,62.83
2023-03-19T10:42:35.752Z,63.39
2023-03-19T10:45:10.804Z,61.23
2023-03-19T10:47:40.247Z,61.11
2023-03-19T10:50:04.101Z,60.50
2023-03-19T10:52:34.519Z,59.75
2023-03-19T10:55:04.605Z,59.37
2023-03-19T10:57:31.857Z,60.32
2023-03-19T10:59:54.243Z,59.14
2023-03-19T11:02:21.112Z,58.33
2023-03-19T11:04:42.747Z,59.06
2023-03-19T11:07:14.748Z,59.05
2023-03-19T11:09:44.485Z,58.82
2023-03-19T11:12:41.524Z,58.83
2023-03-19T11:15:16.279Z,58.49
2023-03-19T11:17:56.251Z,58.40
2023-03-19T11:20:27.481Z,57.87
2023-03-19T11:22:52.535Z,57.17
2023-03-19T11:25:37.390Z,57.75
2023-03-19T11:28:26.001Z,58.69
2023-03-19T11:31:19.908Z,58.55
2023-03-19T11:33:51.322Z,57.40
2023-03-19T11:36:59.686Z,56.93
2023-03-19T11:39:52.824Z,57.53
2023-03-19T11:42:50.849Z,57.30
2023-03-19T11:45:33.474Z,58.03
2023-03-19T11:48:35.651Z,58.41
2023-03-19T11:51:28.263Z,57.85
2023-03-19T11:54:04.426Z,57.85
2023-03-19T11:56:59.925Z,57.86
2023-03-19T11:59:45.086Z,58.40
2023-03-19T12:02:48.867Z,58.04
2023-03-19T12:05:36.915Z,58.25
2023-03-19T12:08:23.777Z,58.48
2023-03-19T12:11:13.902Z,58.42
2023-03-19T12:14:15.601Z,58.81
2023-03-19T12:16:55.935Z,59.32
2023-03-19T12:20:10.684Z,59.23
2023-03-19T12:23:04.620Z,59.20
2023-03-19T12:26:06.841Z,58.86
2023-03-19T12:28:46.627Z,58.89
2023-03-19T12:31:38.995Z,59.49
2023-03-19T12:34:36.042Z,59.25
2023-03-19T12:37:19.008Z,59.30
2023-03-19T12:39:54.731Z,59.04
2023-03-19T12:42:21.271Z,58.65
2023-03-19T12:44:52.236Z,58.50
2023-03-19T12:47:33.704Z,58.33
2023-03-19T12:50:04.583Z,56.62
2023-03-19T12:52:37.966Z,56.74
2023-03-19T12:55:20.394Z,57.70
2023-03-19T12:58:04.083Z,57.46
2023-03-19T13:00:49.120Z,57.44
2023-03-19T13:03:23.002Z,56.60
2023-03-19T13:05:49.750Z,55.89
2023-03-19T13:08:34.164Z,56.50
2023-03-19T13:11:00.136Z,56.80
2023-03-19T13:13:51.539Z,57.40
2023-03-19T13:16:43.714Z,57.69
2023-03-19T13:19:35.686Z,57.92
2023-03-19T13:22:06.679Z,57.93
2023-03-19T13:24:35.591Z,58.17
2023-03-19T13:27:01.272Z,58.49
2023-03-19T13:29:30.357Z,58.52
2023-03-19T13:31:59.485Z,58.90
2023-03-19T13:34:27.525Z,58.39
2023-03-19T13:37:21.183Z,58.45
2023-03-19T13:39:44.994Z,57.55
2023-03-19T13:42:11.384Z,57.40
2023-03-19T13:44:47.714Z,57.03
2023-03-19T13:47:33.601Z,57.05
2023-03-19T13:50:20.417Z,57.30
2023-03-19T13:52:50.063Z,57.44
2023-03-19T13:55:46.346Z,58.34
2023-03-19T13:58:12.403Z,59.03
2023-03-19T14:00:43.350Z,59.36
2023-03-19T14:03:19.483Z,59.23
2023-03-19T14:05:41.631Z,59.52
2023-03-19T14:08:20.947Z,59.63
2023-03-19T14:10:53.717Z,59.89
2023-03-19T14:13:37.932Z,60.28
2023-03-19T14:16:16.910Z,60.70
2023-03-19T14:18:44.032Z,60.92
2023-03-19T14:21:20.635Z,60.73
2023-03-19T14:23:55.148Z,61.26
2023-03-19T14:26:29.282Z,61.16
2023-03-19T14:29:01.385Z,61.10
2023-03-19T14:31:47.239Z,60.82
2023-03-19T14:34:11.886Z,60.11
2023-03-19T14:36:41.371Z,59.74
2023-03-19T14:39:23.656Z,59.76
2023-03-19T14:41:50.549Z,59.04
2023-03-19T14:45:14.579Z,57.51
2023-03-19T14:47:51.607Z,57.05
2023-03-19T14:50:32.948Z,56.20
2023-03-19T14:53:29.543Z,55.66
2023-03-19T14:55:53.283Z,55.05
2023-03-19T14:58:15.357Z,55.13
2023-03-19T15:00:51.577Z,55.62
2023-03-19T15:03:42.706Z,54.62
2023-03-19T15:06:11.925Z,54.52
2023-03-19T15:08:39.653Z,53.63
2023-03-19T15:11:30.810Z,53.99
2023-03-19T15:14:23.161Z,54.45
2023-03-19T15:17:25.754Z,54.63
2023-03-19T15:19:48.742Z,54.36
2023-03-19T15:22:20.892Z,54.24
2023-03-19T15:24:43.102Z,54.29
2023-03-19T15:27:22.610Z,54.77
2023-03-19T15:29:44.298Z,55.37
2023-03-19T15:32:10.171Z,55.65
2023-03-19T15:34:32.457Z,55.91
2023-03-19T15:37:05.294Z,56.03
2023-03-19T15:39:34.880Z,55.63
2023-03-19T15:42:00.238Z,56.07
2023-03-19T15:44:47.655Z,56.64
2023-03-19T15:47:21.866Z,56.85
2023-03-19T15:50:25.039Z,57.61
2023-03-19T15:52:54.382Z,58.47
2023-03-19T15:55:17.777Z,58.79
2023-03-19T15:57:42.746Z,59.31
2023-03-19T16:00:07.964Z,59.72
2023-03-19T16:02:35.406Z,60.31
2023-03-19T16:07:44.555Z,61.51
2023-03-19T16:10:37.641Z,61.96
2023-03-19T16:13:05.469Z,62.49
2023-03-19T16:15:45.110Z,62.54
2023-03-19T16:18:27.609Z,62.46
2023-03-19T16:21:18.606Z,62.42
2023-03-19T16:23:59.324Z,62.47
2023-03-19T16:26:31.409Z,62.31
2023-03-19T16:29:38.671Z,62.48
2023-03-19T16:32:06.534Z,62.74
2023-03-19T16:34:37.694Z,63.06
2023-03-19T16:37:00.301Z,62.87
2023-03-19T16:39:31.204Z,62.84
2023-03-19T16:42:34.415Z,62.83
2023-03-19T16:44:57.321Z,63.06
2023-03-19T16:47:19.012Z,63.08
2023-03-19T16:49:40.861Z,63.34
2023-03-19T16:52:03.049Z,63.29
2023-03-19T16:54:26.240Z,63.42
2023-03-19T16:56:47.900Z,62.82
2023-03-19T16:59:27.248Z,62.86
2023-03-19T17:01:48.921Z,63.19
2023-03-19T17:04:17.586Z,63.52
2023-03-19T17:06:39.352Z,64.25
2023-03-19T17:09:01.290Z,64.54
2023-03-19T17:11:30.076Z,64.76
2023-03-19T17:13:54.387Z,64.62
2023-03-19T17:16:16.123Z,64.44
2023-03-19T17:18:42.918Z,64.50
2023-03-19T17:21:21.216Z,64.29
2023-03-19T17:23:43.476Z,64.73
2023-03-19T17:26:21.539Z,64.26
2023-03-19T17:28:43.926Z,64.37
2023-03-19T17:31:05.775Z,64.63
2023-03-19T17:33:30.281Z,64.75
2023-03-19T17:35:53.736Z,64.79
2023-03-19T17:38:18.688Z,65.28
2023-03-19T17:40:40.270Z,64.96
2023-03-19T17:43:01.976Z,65.28
2023-03-19T17:45:29.650Z,65.20
2023-03-19T17:47:56.549Z,65.34
2023-03-19T17:50:23.566Z,65.64
2023-03-19T17:52:46.974Z,65.95
2023-03-19T17:55:29.868Z,66.12
2023-03-19T17:57:52.648Z,66.31
2023-03-19T18:00:15.381Z,66.70
2023-03-19T18:02:37.425Z,67.34
2023-03-19T18:05:00.203Z,67.17
2023-03-19T18:07:22.179Z,68.02
2023-03-19T18:09:43.998Z,68.22
2023-03-19T18:12:06.000Z,68.42
2023-03-19T18:14:27.656Z,68.65
2023-03-19T18:16:49.670Z,69.14
2023-03-19T18:19:32.041Z,69.24
2023-03-19T18:21:53.679Z,69.45
2023-03-19T18:24:15.356Z,69.06
2023-03-19T18:26:37.030Z,69.18
2023-03-19T18:28:58.640Z,69.49
2023-03-19T18:31:25.288Z,69.88
2023-03-19T18:33:53.910Z,69.61
2023-03-19T18:36:23.942Z,70.18
2023-03-19T18:38:46.063Z,70.06
2023-03-19T18:41:09.361Z,70.03
2023-03-19T18:43:31.208Z,70.05
2023-03-19T18:45:54.603Z,70.33
2023-03-19T18:48:27.350Z,70.46
2023-03-19T18:50:49.272Z,70.23
2023-03-19T18:53:11.405Z,70.02
2023-03-19T18:55:34.127Z,70.13
2023-03-19T18:58:02.992Z,70.17
2023-03-19T19:00:29.969Z,70.28
2023-03-19T19:02:54.768Z,70.38
2023-03-19T19:05:27.618Z,70.44
2023-03-19T19:07:51.477Z,70.60
2023-03-19T19:10:13.206Z,70.50
2023-03-19T19:12:35.605Z,70.34
2023-03-19T19:15:05.057Z,70.52
2023-03-19T19:17:29.523Z,70.60
2023-03-19T19:19:51.348Z,70.82
2023-03-19T19:22:18.816Z,70.93
2023-03-19T19:24:40.609Z,71.17
2023-03-19T19:27:02.625Z,71.16
2023-03-19T19:29:28.454Z,71.22
2023-03-19T19:31:50.261Z,71.67
2023-03-19T19:34:15.657Z,71.05
2023-03-19T19:36:37.301Z,71.50
2023-03-19T19:38:58.934Z,71.44
2023-03-19T19:41:24.678Z,71.26
2023-03-19T19:43:47.848Z,71.23
2023-03-19T19:46:13.719Z,71.42
2023-03-19T19:48:35.489Z,71.02
2023-03-19T19:50:58.201Z,71.12
2023-03-19T19:53:21.899Z,70.92
2023-03-19T19:55:45.656Z,71.06
2023-03-19T19:58:26.478Z,71.21
2023-03-19T20:01:02.392Z,71.46
2023-03-19T20:03:31.029Z,71.35
2023-03-19T20:05:54.328Z,71.46
2023-03-19T20:08:16.819Z,71.54
2023-03-19T20:10:39.367Z,71.54
2023-03-19T20:13:01.593Z,72.10
2023-03-19T20:15:33.917Z,72.00
2023-03-19T20:17:56.598Z,72.30
2023-03-19T20:20:25.776Z,72.54
2023-03-19T20:22:51.207Z,72.66
2023-03-19T20:25:14.593Z,72.79
2023-03-19T20:27:36.667Z,72.49
2023-03-19T20:29:58.700Z,72.43
2023-03-19T20:32:40.014Z,72.80
2023-03-19T20:35:03.019Z,72.49
2023-03-19T20:37:24.858Z,73.08
2023-03-19T20:39:46.501Z,73.21
2023-03-19T20:42:15.581Z,73.32
2023-03-19T20:44:37.343Z,73.47
2023-03-19T20:46:59.053Z,73.98
2023-03-19T20:49:21.099Z,73.86
2023-03-19T20:51:42.931Z,73.92
2023-03-19T20:54:05.432Z,73.65
2023-03-19T20:56:28.082Z,73.62
2023-03-19T20:58:51.490Z,73.83
2023-03-19T21:01:15.386Z,74.01
2023-03-19T21:03:38.187Z,74.08
2023-03-19T21:06:05.959Z,74.30
2023-03-19T21:08:43.529Z,74.26
2023-03-19T21:11:08.963Z,74.38
2023-03-19T21:13:32.006Z,74.44
2023-03-19T21:15:54.220Z,74.79
2023-03-19T21:18:17.037Z,75.20
2023-03-19T21:20:42.504Z,75.14
2023-03-19T21:23:34.626Z,74.96
2023-03-19T21:25:59.148Z,75.11
2023-03-19T21:28:28.735Z,75.28
2023-03-19T21:30:50.464Z,75.56
2023-03-19T21:33:30.710Z,75.38
2023-03-19T21:35:55.036Z,75.14
2023-03-19T21:38:16.693Z,74.89
2023-03-19T21:40:38.691Z,75.13
2023-03-19T21:43:02.951Z,74.48
2023-03-19T21:45:35.480Z,74.69
2023-03-19T21:48:22.734Z,74.72
2023-03-19T21:50:44.418Z,74.84
2023-03-19T21:53:06.720Z,74.26
2023-03-19T21:55:29.717Z,74.28
2023-03-19T21:57:56.467Z,74.62
2023-03-19T22:00:20.023Z,74.41
2023-03-19T22:02:51.067Z,74.49
2023-03-19T22:05:24.896Z,74.55
2023-03-19T22:07:47.204Z,74.54
2023-03-19T22:10:09.521Z,75.10
2023-03-19T22:12:34.208Z,75.21
2023-03-19T22:14:55.884Z,75.25
2023-03-19T22:17:17.708Z,75.31
2023-03-19T22:19:39.346Z,75.24
2023-03-19T22:22:01.768Z,75.10
2023-03-19T22:24:23.370Z,75.22
2023-03-19T22:26:49.065Z,75.10
2023-03-19T22:29:19.606Z,75.23
2023-03-19T22:31:41.920Z,75.45
2023-03-19T22:34:03.791Z,75.47
2023-03-19T22:36:25.398Z,75.58
2023-03-19T22:38:48.702Z,75.73
2023-03-19T22:41:40.446Z,75.67
2023-03-19T22:44:07.908Z,75.91
2023-03-19T22:46:29.654Z,76.38
2023-03-19T22:48:52.158Z,76.62
2023-03-19T22:51:22.585Z,76.58
2023-03-19T22:53:44.909Z,76.50
2023-03-19T22:56:06.977Z,76.44
2023-03-19T22:58:28.866Z,76.82
2023-03-19T23:00:52.312Z,77.26
2023-03-19T23:03:26.685Z,77.36
2023-03-19T23:06:03.341Z,77.79
2023-03-19T23:08:25.937Z,77.94
2023-03-19T23:10:47.936Z,77.72
2023-03-19T23:13:11.115Z,77.88
2023-03-19T23:15:34.645Z,77.93
2023-03-19T23:17:59.894Z,77.80
2023-03-19T23:20:24.346Z,77.74
2023-03-19T23:22:47.543Z,77.89
2023-03-19T23:25:15.158Z,78.05
2023-03-19T23:27:36.930Z,77.91
2023-03-19T23:29:58.639Z,77.62
2023-03-19T23:32:20.695Z,77.68
2023-03-19T23:34:56.551Z,77.69
2023-03-19T23:37:22.534Z,77.49
2023-03-19T23:39:47.587Z,77.43
2023-03-19T23:42:27.522Z,77.53
2023-03-19T23:44:49.238Z,77.34
2023-03-19T23:47:11.028Z,77.58
2023-03-19T23:49:33.184Z,77.38
2023-03-19T23:51:55.392Z,77.33
2023-03-19T23:54:37.840Z,77.11
2023-03-19T23:57:05.531Z,77.13
2023-03-19T23:59:34.291Z,77.31
